createdAt,value
2023-02-11T00:02:17.018Z,45.50
2023-02-11T00:04:49.010Z,37.80
2023-02-11T00:07:17.732Z,43.30
2023-02-11T00:09:48.223Z,36.70
2023-02-11T00:12:19.011Z,39.30
2023-02-11T00:14:50.382Z,43.50
2023-02-11T00:17:19.126Z,32.60
2023-02-11T00:19:51.193Z,40.10
2023-02-11T00:22:20.050Z,40.90
2023-02-11T00:24:49.078Z,37.70
2023-02-11T00:27:20.291Z,38.40
2023-02-11T00:29:48.944Z,34.30
2023-02-11T00:32:17.734Z,39.60
2023-02-11T00:34:47.043Z,39.40
2023-02-11T00:37:17.474Z,29.60
2023-02-11T00:39:46.414Z,38.00
2023-02-11T00:42:15.755Z,34.60
2023-02-11T00:44:50.257Z,35.70
2023-02-11T00:47:18.966Z,32.90
2023-02-11T00:49:49.105Z,36.80
2023-02-11T00:52:17.920Z,31.80
2023-02-11T00:54:49.064Z,37.00
2023-02-11T00:57:18.126Z,30.80
2023-02-11T00:59:47.002Z,35.20
2023-02-11T01:02:16.030Z,30.80
2023-02-11T01:04:50.181Z,30.90
2023-02-11T01:07:19.140Z,30.50
2023-02-11T01:09:48.357Z,35.20
2023-02-11T01:12:17.382Z,31.10
2023-02-11T01:14:46.157Z,30.70
2023-02-11T01:17:14.872Z,34.40
2023-02-11T01:19:46.366Z,35.70
2023-02-11T01:22:15.122Z,30.20
2023-02-11T01:24:46.024Z,32.30
2023-02-11T01:27:14.715Z,27.20
2023-02-11T01:29:44.809Z,25.40
2023-02-11T01:32:13.544Z,33.50
2023-02-11T01:34:47.017Z,28.80
2023-02-11T01:37:16.526Z,26.60
2023-02-11T01:39:46.044Z,29.20
2023-02-11T01:42:17.938Z,35.40
2023-02-11T01:44:49.275Z,25.30
2023-02-11T01:47:21.211Z,31.70
2023-02-11T01:49:55.379Z,28.40
2023-02-11T01:52:28.817Z,31.90
2023-02-11T01:55:20.657Z,27.20
2023-02-11T01:57:55.893Z,25.50
2023-02-11T02:00:30.097Z,28.60
2023-02-11T02:03:05.271Z,30.10
2023-02-11T02:05:39.915Z,30.20
2023-02-11T02:08:14.356Z,31.30
2023-02-11T02:10:47.080Z,33.30
2023-02-11T02:13:18.406Z,30.40
2023-02-11T02:15:51.341Z,29.90
2023-02-11T02:18:35.710Z,31.70
2023-02-11T02:21:45.290Z,28.00
2023-02-11T02:24:51.966Z,25.80
2023-02-11T02:27:45.959Z,25.50
2023-02-11T02:30:48.602Z,28.50
2023-02-11T02:33:31.449Z,24.00
2023-02-11T02:36:09.469Z,30.30
2023-02-11T02:38:47.268Z,28.80
2023-02-11T02:41:19.210Z,29.50
2023-02-11T02:43:50.067Z,28.60
2023-02-11T02:46:20.810Z,19.80
2023-02-11T02:48:52.096Z,32.00
2023-02-11T02:51:47.968Z,22.00
2023-02-11T02:54:44.831Z,21.00
2023-02-11T02:57:33.722Z,25.10
2023-02-11T03:00:19.679Z,22.40
2023-02-11T03:02:58.039Z,25.60
2023-02-11T03:05:33.730Z,22.90
2023-02-11T03:08:08.652Z,32.70
2023-02-11T03:10:52.467Z,25.40
2023-02-11T03:13:27.127Z,24.20
2023-02-11T03:15:59.907Z,27.80
2023-02-11T03:18:31.249Z,22.20
2023-02-11T03:21:02.200Z,24.60
2023-02-11T03:23:39.299Z,23.60
2023-02-11T03:26:14.431Z,23.30
2023-02-11T03:28:50.999Z,26.10
2023-02-11T03:31:27.091Z,27.90
2023-02-11T03:34:02.401Z,29.20
2023-02-11T03:36:40.426Z,22.70
2023-02-11T03:39:11.817Z,28.80
2023-02-11T03:41:44.024Z,27.10
2023-02-11T03:44:15.772Z,25.40
2023-02-11T03:46:50.883Z,27.30
2023-02-11T03:49:22.335Z,27.80
2023-02-11T03:51:54.243Z,24.70
2023-02-11T03:54:29.068Z,30.20
2023-02-11T03:57:02.629Z,26.10
2023-02-11T03:59:31.264Z,26.80
2023-02-11T04:02:00.105Z,29.80
2023-02-11T04:04:28.755Z,33.20
2023-02-11T04:06:57.823Z,30.30
2023-02-11T04:09:26.737Z,33.20
2023-02-11T04:11:55.380Z,25.00
2023-02-11T04:14:23.927Z,23.40
2023-02-11T04:16:52.858Z,34.30
2023-02-11T04:19:21.650Z,25.40
2023-02-11T04:21:50.541Z,29.70
2023-02-11T04:24:22.196Z,35.00
2023-02-11T04:26:50.724Z,34.10
2023-02-11T04:29:19.474Z,33.40
2023-02-11T04:31:48.304Z,27.60
2023-02-11T04:34:17.733Z,29.00
2023-02-11T04:36:46.664Z,29.00
2023-02-11T04:39:15.321Z,33.60
2023-02-11T04:41:43.873Z,28.20
2023-02-11T04:44:12.950Z,35.90
2023-02-11T04:46:42.408Z,31.70
2023-02-11T04:49:13.143Z,31.80
2023-02-11T04:51:42.205Z,38.50
2023-02-11T04:54:11.654Z,38.20
2023-02-11T04:56:40.678Z,37.80
2023-02-11T04:59:10.523Z,29.70
2023-02-11T05:01:41.091Z,33.60
2023-02-11T05:04:10.987Z,33.80
2023-02-11T05:06:40.251Z,36.40
2023-02-11T05:09:10.785Z,32.50
2023-02-11T05:11:39.781Z,38.00
2023-02-11T05:14:08.656Z,33.80
2023-02-11T05:16:42.910Z,35.60
2023-02-11T05:19:11.894Z,28.90
2023-02-11T05:21:53.126Z,28.30
2023-02-11T05:24:29.277Z,34.30
2023-02-11T05:26:58.384Z,33.00
2023-02-11T05:29:27.278Z,38.80
2023-02-11T05:31:56.160Z,35.40
2023-02-11T05:34:25.770Z,32.60
2023-02-11T05:36:55.008Z,30.90
2023-02-11T05:39:24.168Z,28.50
2023-02-11T05:41:53.052Z,35.30
2023-02-11T05:44:22.128Z,41.90
2023-02-11T05:46:50.856Z,43.60
2023-02-11T05:49:19.833Z,38.50
2023-02-11T05:51:49.140Z,31.30
2023-02-11T05:54:17.929Z,36.10
2023-02-11T05:56:47.120Z,29.90
2023-02-11T05:59:16.012Z,34.70
2023-02-11T06:01:45.140Z,38.90
2023-02-11T06:04:13.892Z,32.80
2023-02-11T06:06:42.883Z,37.50
2023-02-11T06:09:11.984Z,32.60
2023-02-11T06:11:40.723Z,30.60
2023-02-11T06:14:11.204Z,32.40
2023-02-11T06:16:40.721Z,34.40
2023-02-11T06:19:09.623Z,37.30
2023-02-11T06:21:44.541Z,35.40
2023-02-11T06:24:13.440Z,37.40
2023-02-11T06:26:42.056Z,39.50
2023-02-11T06:29:14.165Z,34.00
2023-02-11T06:31:43.155Z,42.90
2023-02-11T06:34:12.063Z,42.90
2023-02-11T06:36:42.284Z,37.60
2023-02-11T06:39:12.214Z,34.90
2023-02-11T06:41:43.477Z,32.50
2023-02-11T06:44:12.105Z,32.70
2023-02-11T06:46:40.809Z,43.70
2023-02-11T06:49:09.794Z,39.40
2023-02-11T06:51:41.486Z,45.40
2023-02-11T06:54:11.582Z,41.10
2023-02-11T06:56:41.396Z,37.20
2023-02-11T06:59:15.543Z,32.50
2023-02-11T07:01:44.700Z,36.20
2023-02-11T07:04:14.248Z,49.90
2023-02-11T07:06:43.955Z,40.90
2023-02-11T07:09:12.721Z,40.10
2023-02-11T07:11:41.528Z,41.10
2023-02-11T07:14:12.861Z,50.30
2023-02-11T07:16:44.692Z,43.40
2023-02-11T07:19:13.804Z,40.20
2023-02-11T07:21:42.415Z,35.10
2023-02-11T07:24:11.524Z,44.30
2023-02-11T07:26:41.631Z,45.40
2023-02-11T07:29:10.500Z,44.50
2023-02-11T07:31:41.233Z,49.30
2023-02-11T07:34:11.517Z,43.90
2023-02-11T07:36:43.302Z,44.50
2023-02-11T07:39:11.930Z,42.40
2023-02-11T07:41:40.783Z,55.80
2023-02-11T07:44:10.643Z,47.80
2023-02-11T07:46:42.493Z,60.80
2023-02-11T07:49:11.864Z,54.70
2023-02-11T07:51:41.124Z,58.40
2023-02-11T07:54:12.219Z,54.40
2023-02-11T07:56:41.217Z,59.90
2023-02-11T07:59:10.433Z,50.50
2023-02-11T08:01:40.744Z,45.00
2023-02-11T08:04:09.438Z,49.10
2023-02-11T08:06:42.947Z,61.40
2023-02-11T08:09:16.345Z,57.30
2023-02-11T08:11:45.586Z,52.10
2023-02-11T08:14:14.328Z,61.40
2023-02-11T08:16:43.486Z,61.30
2023-02-11T08:19:15.101Z,53.80
2023-02-11T08:21:44.451Z,62.20
2023-02-11T08:24:13.288Z,59.80
2023-02-11T08:26:45.080Z,64.20
2023-02-11T08:29:17.042Z,57.70
2023-02-11T08:31:48.533Z,59.60
2023-02-11T08:34:31.452Z,55.10
2023-02-11T08:37:00.369Z,52.30
2023-02-11T08:39:29.153Z,65.10
2023-02-11T08:41:57.903Z,57.50
2023-02-11T08:44:26.997Z,55.40
2023-02-11T08:46:55.784Z,60.10
2023-02-11T08:49:24.492Z,55.30
2023-02-11T08:51:55.720Z,52.60
2023-02-11T08:54:24.843Z,56.40
2023-02-11T08:56:53.987Z,54.30
2023-02-11T08:59:23.413Z,55.60
2023-02-11T09:01:53.000Z,55.80
2023-02-11T09:04:21.818Z,47.80
2023-02-11T09:06:50.547Z,53.60
2023-02-11T09:09:19.437Z,51.20
2023-02-11T09:11:48.252Z,57.60
2023-02-11T09:14:20.147Z,52.90
2023-02-11T09:16:49.963Z,49.70
2023-02-11T09:19:19.675Z,48.10
2023-02-11T09:21:49.066Z,50.30
2023-02-11T09:24:17.811Z,49.10
2023-02-11T09:26:48.977Z,46.10
2023-02-11T09:29:17.586Z,44.20
2023-02-11T09:31:46.415Z,46.30
2023-02-11T09:34:15.379Z,44.80
2023-02-11T09:36:44.100Z,45.10
2023-02-11T09:39:16.443Z,49.30
2023-02-11T09:42:06.570Z,45.60
2023-02-11T09:44:38.434Z,51.10
2023-02-11T09:47:21.019Z,51.60
2023-02-11T09:49:57.220Z,51.80
2023-02-11T09:52:34.753Z,56.50
2023-02-11T09:55:11.635Z,47.30
2023-02-11T09:57:40.637Z,47.80
2023-02-11T10:00:20.997Z,51.70
2023-02-11T10:03:03.954Z,50.10
2023-02-11T10:05:45.890Z,55.00
2023-02-11T10:08:20.387Z,58.40
2023-02-11T10:10:53.981Z,53.50
2023-02-11T10:13:42.448Z,54.50
2023-02-11T10:16:24.842Z,53.40
2023-02-11T10:19:10.901Z,51.00
2023-02-11T10:21:51.034Z,47.40
2023-02-11T10:24:20.594Z,51.60
2023-02-11T10:26:51.795Z,44.60
2023-02-11T10:29:34.957Z,47.00
2023-02-11T10:32:15.806Z,52.60
2023-02-11T10:34:47.802Z,47.10
2023-02-11T10:37:17.051Z,41.50
2023-02-11T10:39:49.526Z,47.40
2023-02-11T10:42:18.706Z,50.20
2023-02-11T10:44:58.952Z,53.70
2023-02-11T10:47:32.629Z,47.20
2023-02-11T10:50:03.164Z,52.20
2023-02-11T10:52:32.213Z,49.80
2023-02-11T10:55:05.386Z,43.90
2023-02-11T10:57:39.276Z,52.50
2023-02-11T11:00:23.568Z,47.30
2023-02-11T11:02:58.266Z,46.00
2023-02-11T11:05:31.880Z,45.40
2023-02-11T11:08:02.939Z,53.20
2023-02-11T11:10:42.922Z,49.00
2023-02-11T11:13:27.602Z,51.50
2023-02-11T11:16:24.711Z,53.70
2023-02-11T11:19:13.292Z,54.60
2023-02-11T11:21:46.070Z,49.70
2023-02-11T11:24:21.073Z,64.00
2023-02-11T11:26:52.571Z,53.50
2023-02-11T11:29:30.727Z,56.60
2023-02-11T11:32:04.992Z,48.60
2023-02-11T11:34:40.085Z,64.30
2023-02-11T11:37:13.818Z,56.00
2023-02-11T11:39:50.971Z,59.10
2023-02-11T11:42:27.632Z,61.60
2023-02-11T11:44:59.419Z,54.10
2023-02-11T11:47:34.308Z,52.10
2023-02-11T11:50:34.033Z,61.50
2023-02-11T11:53:10.870Z,49.50
2023-02-11T11:55:43.912Z,67.30
2023-02-11T11:58:16.611Z,59.50
2023-02-11T12:00:57.461Z,60.70
2023-02-11T12:03:56.092Z,57.40
2023-02-11T12:06:35.629Z,55.40
2023-02-11T12:09:16.047Z,65.10
2023-02-11T12:12:17.821Z,62.70
2023-02-11T12:14:55.668Z,55.40
2023-02-11T12:17:41.309Z,61.40
2023-02-11T12:20:32.002Z,62.30
2023-02-11T12:23:28.645Z,66.70
2023-02-11T12:26:05.878Z,52.70
2023-02-11T12:28:43.913Z,63.60
2023-02-11T12:31:28.252Z,59.00
2023-02-11T12:34:18.327Z,59.00
2023-02-11T12:37:02.998Z,62.30
2023-02-11T12:39:40.466Z,64.20
2023-02-11T12:42:51.414Z,55.80
2023-02-11T12:45:31.009Z,49.70
2023-02-11T12:48:13.065Z,53.30
2023-02-11T12:50:52.672Z,58.10
2023-02-11T12:53:40.963Z,53.00
2023-02-11T12:56:16.535Z,61.80
2023-02-11T12:58:51.681Z,58.20
2023-02-11T13:01:24.451Z,54.00
2023-02-11T13:03:59.053Z,52.50
2023-02-11T13:06:35.154Z,62.60
2023-02-11T13:09:07.674Z,49.90
2023-02-11T13:11:43.265Z,58.60
2023-02-11T13:14:18.718Z,65.20
2023-02-11T13:16:50.593Z,57.10
2023-02-11T13:19:27.108Z,58.60
2023-02-11T13:22:08.691Z,59.80
2023-02-11T13:24:44.776Z,55.00
2023-02-11T13:27:31.342Z,60.90
2023-02-11T13:30:29.961Z,58.60
2023-02-11T13:33:17.495Z,54.50
2023-02-11T13:36:09.944Z,68.20
2023-02-11T13:38:41.287Z,55.90
2023-02-11T13:41:23.822Z,69.00
2023-02-11T13:44:21.802Z,63.90
2023-02-11T13:46:55.000Z,56.30
2023-02-11T13:49:28.279Z,60.40
2023-02-11T13:51:59.410Z,62.00
2023-02-11T13:54:32.878Z,61.90
2023-02-11T13:57:29.951Z,66.10
2023-02-11T14:00:00.520Z,64.30
2023-02-11T14:02:51.288Z,59.10
2023-02-11T14:05:50.378Z,62.70
2023-02-11T14:08:41.065Z,62.20
2023-02-11T14:11:51.358Z,64.30
2023-02-11T14:14:29.908Z,59.10
2023-02-11T14:17:31.220Z,52.50
2023-02-11T14:20:04.707Z,60.50
2023-02-11T14:22:49.370Z,54.30
2023-02-11T14:25:24.706Z,47.60
2023-02-11T14:28:04.189Z,76.00
2023-02-11T14:30:56.042Z,71.60
2023-02-11T14:34:05.632Z,65.50
2023-02-11T14:36:46.533Z,60.80
2023-02-11T14:39:30.166Z,67.30
2023-02-11T14:42:04.679Z,56.90
2023-02-11T14:44:39.299Z,77.40
2023-02-11T14:47:19.253Z,64.40
2023-02-11T14:49:55.053Z,64.70
2023-02-11T14:52:34.752Z,53.70
2023-02-11T14:55:20.099Z,53.70
2023-02-11T14:58:09.177Z,65.40
2023-02-11T15:00:54.636Z,62.40
2023-02-11T15:03:32.618Z,43.70
2023-02-11T15:06:09.903Z,63.70
2023-02-11T15:08:51.557Z,66.00
2023-02-11T15:11:23.768Z,66.50
2023-02-11T15:14:00.234Z,65.80
2023-02-11T15:16:43.156Z,59.60
2023-02-11T15:19:26.364Z,55.00
2023-02-11T15:22:10.494Z,60.30
2023-02-11T15:24:54.185Z,66.60
2023-02-11T15:27:43.408Z,68.70
2023-02-11T15:30:45.574Z,65.60
2023-02-11T15:33:31.991Z,60.40
2023-02-11T15:36:02.866Z,58.40
2023-02-11T15:38:33.486Z,61.20
2023-02-11T15:41:07.216Z,56.20
2023-02-11T15:43:46.271Z,57.10
2023-02-11T15:46:35.913Z,58.20
2023-02-11T15:49:18.776Z,45.30
2023-02-11T15:51:48.018Z,55.50
2023-02-11T15:54:20.624Z,51.00
2023-02-11T15:56:56.928Z,41.90
2023-02-11T15:59:30.086Z,43.10
2023-02-11T16:02:06.862Z,43.00
2023-02-11T16:04:39.946Z,42.70
2023-02-11T16:07:42.327Z,49.90
2023-02-11T16:10:22.312Z,52.60
2023-02-11T16:13:01.760Z,39.90
2023-02-11T16:15:44.983Z,44.20
2023-02-11T16:18:37.790Z,44.40
2023-02-11T16:21:15.870Z,33.40
2023-02-11T16:23:51.957Z,49.30
2023-02-11T16:26:32.552Z,44.90
2023-02-11T16:29:07.811Z,37.50
2023-02-11T16:31:40.075Z,50.00
2023-02-11T16:34:18.267Z,43.80
2023-02-11T16:36:47.394Z,41.30
2023-02-11T16:39:18.150Z,40.20
2023-02-11T16:41:47.478Z,34.50
2023-02-11T16:44:16.810Z,36.90
2023-02-11T16:46:46.633Z,41.10
2023-02-11T16:49:21.220Z,39.30
2023-02-11T16:51:52.409Z,39.30
2023-02-11T16:54:21.465Z,39.80
2023-02-11T16:56:50.708Z,43.30
2023-02-11T16:59:19.996Z,40.10
2023-02-11T17:01:51.916Z,43.90
2023-02-11T17:04:23.600Z,42.00
2023-02-11T17:06:55.966Z,43.10
2023-02-11T17:09:30.883Z,36.90
2023-02-11T17:12:00.938Z,37.30
2023-02-11T17:14:30.642Z,39.80
2023-02-11T17:16:59.529Z,44.80
2023-02-11T17:19:31.755Z,40.20
2023-02-11T17:22:03.288Z,35.30
2023-02-11T17:24:40.270Z,45.60
2023-02-11T17:27:11.197Z,43.60
2023-02-11T17:29:49.254Z,36.00
2023-02-11T17:32:23.090Z,35.40
2023-02-11T17:34:53.477Z,28.40
2023-02-11T17:37:25.124Z,37.90
2023-02-11T17:40:05.178Z,42.80
2023-02-11T17:42:34.065Z,56.50
2023-02-11T17:45:06.368Z,35.60
2023-02-11T17:47:38.382Z,39.80
2023-02-11T17:50:12.044Z,39.60
2023-02-11T17:52:46.857Z,44.50
2023-02-11T17:55:19.130Z,45.10
2023-02-11T17:57:47.828Z,37.70
2023-02-11T18:00:20.274Z,40.40
2023-02-11T18:02:49.477Z,38.60
2023-02-11T18:05:21.135Z,44.70
2023-02-11T18:07:50.305Z,34.40
2023-02-11T18:10:22.291Z,32.00
2023-02-11T18:12:54.074Z,34.80
2023-02-11T18:15:25.392Z,31.20
2023-02-11T18:17:56.932Z,32.20
2023-02-11T18:20:25.835Z,41.90
2023-02-11T18:22:54.648Z,32.90
2023-02-11T18:25:23.506Z,26.90
2023-02-11T18:27:52.139Z,34.40
2023-02-11T18:30:23.637Z,38.80
2023-02-11T18:32:55.392Z,36.50
2023-02-11T18:35:25.654Z,39.00
2023-02-11T18:37:59.467Z,34.50
2023-02-11T18:40:31.240Z,37.10
2023-02-11T18:43:00.046Z,34.60
2023-02-11T18:45:33.288Z,37.80
2023-02-11T18:48:04.740Z,45.00
2023-02-11T18:50:36.764Z,38.00
2023-02-11T18:53:06.646Z,43.70
2023-02-11T18:55:41.345Z,31.80
2023-02-11T18:58:13.106Z,34.80
2023-02-11T19:00:46.151Z,37.30
2023-02-11T19:03:17.708Z,37.90
2023-02-11T19:05:49.928Z,38.00
2023-02-11T19:08:21.821Z,40.00
2023-02-11T19:10:56.761Z,36.60
2023-02-11T19:13:28.013Z,52.50
2023-02-11T19:16:04.465Z,58.20
2023-02-11T19:18:47.398Z,31.60
2023-02-11T19:21:23.631Z,40.10
2023-02-11T19:23:59.980Z,34.90
2023-02-11T19:26:35.542Z,43.60
2023-02-11T19:29:31.013Z,30.20
2023-02-11T19:32:11.223Z,30.20
2023-02-11T19:35:22.975Z,29.10
2023-02-11T19:37:59.927Z,26.50
2023-02-11T19:40:35.343Z,29.60
2023-02-11T19:43:11.866Z,18.00
2023-02-11T19:45:44.429Z,20.90
2023-02-11T19:48:16.476Z,27.40
2023-02-11T19:50:49.066Z,16.60
2023-02-11T19:53:25.277Z,23.50
2023-02-11T19:55:58.680Z,18.20
2023-02-11T19:58:32.955Z,34.90
2023-02-11T20:01:15.287Z,29.30
2023-02-11T20:03:57.149Z,25.00
2023-02-11T20:06:33.268Z,23.40
2023-02-11T20:09:09.474Z,25.20
2023-02-11T20:11:51.116Z,25.50
2023-02-11T20:14:21.698Z,30.40
2023-02-11T20:16:58.103Z,32.90
2023-02-11T20:19:33.572Z,25.40
2023-02-11T20:22:11.360Z,19.60
2023-02-11T20:24:51.557Z,30.20
2023-02-11T20:27:23.575Z,31.70
2023-02-11T20:30:03.127Z,24.00
2023-02-11T20:32:38.300Z,23.20
2023-02-11T20:35:10.826Z,17.90
2023-02-11T20:37:52.439Z,19.70
2023-02-11T20:40:25.011Z,27.50
2023-02-11T20:43:02.503Z,17.70
2023-02-11T20:45:51.541Z,16.70
2023-02-11T20:48:30.512Z,24.90
2023-02-11T20:51:15.399Z,23.60
2023-02-11T20:53:54.717Z,19.90
2023-02-11T20:56:39.514Z,17.70
2023-02-11T20:59:17.764Z,26.90
2023-02-11T21:01:55.216Z,22.70
2023-02-11T21:04:29.941Z,21.80
2023-02-11T21:07:09.231Z,24.90
2023-02-11T21:09:43.969Z,16.10
2023-02-11T21:12:26.283Z,18.20
2023-02-11T21:15:15.877Z,17.70
2023-02-11T21:17:48.936Z,11.60
2023-02-11T21:20:46.281Z,14.90
2023-02-11T21:23:20.127Z,15.00
2023-02-11T21:26:04.686Z,13.50
2023-02-11T21:28:41.500Z,20.70
2023-02-11T21:31:30.472Z,11.70
2023-02-11T21:34:14.160Z,15.30
2023-02-11T21:36:52.490Z,13.20
2023-02-11T21:39:22.750Z,13.30
2023-02-11T21:41:55.957Z,8.90
2023-02-11T21:44:41.819Z,12.40
2023-02-11T21:47:24.702Z,9.30
2023-02-11T21:50:05.566Z,8.10
2023-02-11T21:52:35.782Z,11.20
2023-02-11T21:55:09.369Z,3.10
2023-02-11T21:57:40.993Z,8.50
2023-02-11T22:00:16.605Z,6.00
2023-02-11T22:02:48.265Z,5.50
2023-02-11T22:05:20.747Z,3.10
2023-02-11T22:07:53.030Z,2.80
2023-02-11T22:10:23.314Z,2.50
2023-02-11T22:12:53.477Z,4.40
2023-02-11T22:15:23.761Z,2.70
2023-02-11T22:17:54.005Z,3.60
2023-02-11T22:20:23.467Z,3.80
2023-02-11T22:22:59.029Z,4.90
2023-02-11T22:25:28.009Z,2.50
2023-02-11T22:27:57.034Z,1.80
2023-02-11T22:30:25.956Z,4.80
2023-02-11T22:32:54.677Z,2.20
2023-02-11T22:35:23.542Z,3.40
2023-02-11T22:37:52.535Z,3.30
2023-02-11T22:40:23.517Z,1.50
2023-02-11T22:42:52.491Z,5.30
2023-02-11T22:45:22.078Z,3.30
2023-02-11T22:47:50.825Z,5.60
2023-02-11T22:50:20.015Z,3.70
2023-02-11T22:52:50.973Z,2.00
2023-02-11T22:55:19.903Z,1.90
2023-02-11T22:57:48.651Z,2.00
2023-02-11T23:00:24.069Z,3.30
2023-02-11T23:02:54.186Z,3.60
2023-02-11T23:05:23.382Z,5.60
2023-02-11T23:07:52.349Z,4.50
2023-02-11T23:10:23.938Z,4.30
2023-02-11T23:12:52.717Z,1.10
2023-02-11T23:15:21.574Z,3.00
2023-02-11T23:17:50.394Z,2.10
2023-02-11T23:20:19.681Z,1.90
2023-02-11T23:22:48.608Z,1.70
2023-02-11T23:25:17.914Z,2.90
2023-02-11T23:27:46.720Z,1.50
2023-02-11T23:30:21.672Z,2.00
2023-02-11T23:32:51.745Z,1.80
2023-02-11T23:35:22.741Z,3.40
2023-02-11T23:37:52.555Z,2.60
2023-02-11T23:40:22.081Z,1.30
2023-02-11T23:42:51.779Z,2.20
2023-02-11T23:45:22.566Z,4.70
2023-02-11T23:47:52.010Z,4.60
2023-02-11T23:50:23.388Z,1.70
2023-02-11T23:52:55.532Z,2.80
2023-02-11T23:55:24.521Z,0.50
2023-02-11T23:57:55.506Z,3.20
